Winchester Bay, Oregon
Current Conditions -  °F | °C
As of 12:35 PM on Tuesday 21 Oct 2014 (Local Time) from KOTH Reporting Station
Overcast Overcast  
Wind Chill: 63°   Ceiling: 2900
Heat Index: 63°   Visibility: 10mi
Dew Point: 55°   Wind: 7mph
Humidity: 77%   Direction: 180°S
Pressure: 30.04"   Gusts: NA
Location:  43.8192°N, 123.875°W
Report Text: KOTH 211935Z 18006KT 10SM BKN029 BKN037 OVC046 17/13 A3004 RMK AO1
Loading
Personal Weather Stations






























Interactive Weather Map
Tropical Storm Tracking
New forecast layout! Learn more

10-Day Weather Forecast

Advertisements
Track Severe Weather on mobile